createdAt,value
2018-01-19T00:01:25.529Z,6.10
2018-01-19T00:03:53.088Z,4.87
2018-01-19T00:06:20.579Z,5.77
2018-01-19T00:08:48.003Z,5.83
2018-01-19T00:11:15.562Z,5.90
2018-01-19T00:13:43.122Z,5.90
2018-01-19T00:16:10.592Z,5.80
2018-01-19T00:18:38.013Z,5.80
2018-01-19T00:21:05.428Z,5.93
2018-01-19T00:23:33.052Z,5.63
2018-01-19T00:26:00.612Z,6.40
2018-01-19T00:28:28.186Z,6.47
2018-01-19T00:30:55.731Z,5.67
2018-01-19T00:33:23.224Z,6.47
2018-01-19T00:35:50.748Z,6.50
2018-01-19T00:38:18.306Z,6.40
2018-01-19T00:40:45.906Z,7.83
2018-01-19T00:43:13.426Z,6.60
2018-01-19T00:45:40.984Z,6.43
2018-01-19T00:48:08.752Z,5.80
2018-01-19T00:50:36.310Z,6.90
2018-01-19T00:53:03.868Z,6.10
2018-01-19T00:55:31.427Z,6.97
2018-01-19T00:57:58.985Z,6.30
2018-01-19T01:00:26.546Z,6.30
2018-01-19T01:02:54.104Z,6.57
2018-01-19T01:05:21.618Z,6.60
2018-01-19T01:07:49.225Z,6.70
2018-01-19T01:10:16.717Z,7.20
2018-01-19T01:12:44.344Z,7.77
2018-01-19T01:15:11.763Z,6.97
2018-01-19T01:17:39.188Z,7.70
2018-01-19T01:20:06.816Z,7.03
2018-01-19T01:22:34.377Z,8.53
2018-01-19T01:25:01.779Z,8.10
2018-01-19T01:27:29.290Z,8.90
2018-01-19T01:29:56.796Z,9.10
2018-01-19T01:32:24.409Z,8.37
2018-01-19T01:34:51.829Z,8.60
2018-01-19T01:37:19.323Z,9.30
2018-01-19T01:39:46.882Z,9.10
2018-01-19T01:42:14.441Z,8.40
2018-01-19T01:44:42.001Z,7.83
2018-01-19T01:47:09.563Z,9.07
2018-01-19T01:49:37.124Z,8.30
2018-01-19T01:52:04.679Z,9.40
2018-01-19T01:54:32.239Z,8.60
2018-01-19T01:56:59.799Z,7.53
2018-01-19T01:59:27.203Z,6.97
2018-01-19T02:01:54.635Z,7.60
2018-01-19T02:04:22.101Z,7.37
2018-01-19T02:06:49.680Z,7.00
2018-01-19T02:09:17.232Z,8.13
2018-01-19T02:11:44.781Z,8.00
2018-01-19T02:14:12.307Z,7.60
2018-01-19T02:16:39.795Z,7.83
2018-01-19T02:19:07.204Z,7.13
2018-01-19T02:21:34.778Z,6.67
2018-01-19T02:24:02.338Z,7.57
2018-01-19T02:26:29.897Z,7.00
2018-01-19T02:28:57.491Z,5.97
2018-01-19T02:31:25.018Z,6.20
2018-01-19T02:33:52.509Z,6.07
2018-01-19T02:36:19.908Z,6.13
2018-01-19T02:38:47.387Z,6.53
2018-01-19T02:41:14.947Z,6.63
2018-01-19T02:43:42.405Z,5.20
2018-01-19T02:46:09.965Z,5.47
2018-01-19T02:48:37.523Z,6.80
2018-01-19T02:51:05.081Z,6.20
2018-01-19T02:53:32.642Z,5.40
2018-01-19T02:56:00.133Z,5.90
2018-01-19T02:58:27.658Z,6.30
2018-01-19T03:00:55.104Z,6.57
2018-01-19T03:03:22.528Z,6.00
2018-01-19T03:05:49.972Z,6.33
2018-01-19T03:08:17.520Z,6.90
2018-01-19T03:10:45.046Z,6.60
2018-01-19T03:13:12.548Z,6.50
2018-01-19T03:15:40.062Z,5.70
2018-01-19T03:18:07.623Z,5.50
2018-01-19T03:20:35.186Z,6.23
2018-01-19T03:23:02.676Z,5.60
2018-01-19T03:25:30.094Z,5.80
2018-01-19T03:27:57.553Z,5.83
2018-01-19T03:30:25.115Z,6.10
2018-01-19T03:32:52.670Z,5.80
2018-01-19T03:35:20.230Z,6.10
2018-01-19T03:37:47.791Z,5.47
2018-01-19T03:40:15.280Z,5.60
2018-01-19T03:42:42.840Z,6.00
2018-01-19T03:45:10.364Z,6.37
2018-01-19T03:47:37.924Z,5.50
2018-01-19T03:50:05.484Z,5.80
2018-01-19T03:52:33.043Z,5.90
2018-01-19T03:55:00.602Z,5.00
2018-01-19T03:57:28.162Z,4.80
2018-01-19T03:59:55.722Z,5.40
2018-01-19T04:02:23.280Z,5.23
2018-01-19T04:04:50.840Z,5.17
2018-01-19T04:07:18.297Z,4.70
2018-01-19T04:09:45.855Z,4.80
2018-01-19T04:12:13.277Z,4.50
2018-01-19T04:14:40.770Z,5.40
2018-01-19T04:17:08.330Z,4.93
2018-01-19T04:19:35.831Z,4.77
2018-01-19T04:22:03.348Z,4.80
2018-01-19T04:24:30.804Z,4.83
2018-01-19T04:26:58.208Z,4.80
2018-01-19T04:29:25.600Z,5.57
2018-01-19T04:31:53.033Z,5.00
2018-01-19T04:34:20.439Z,5.60
2018-01-19T04:36:47.857Z,4.87
2018-01-19T04:39:15.288Z,5.60
2018-01-19T04:41:42.833Z,5.57
2018-01-19T04:44:10.356Z,4.80
2018-01-19T04:46:37.916Z,4.10
2018-01-19T04:49:05.414Z,5.20
2018-01-19T04:51:32.871Z,4.70
2018-01-19T04:54:00.390Z,5.20
2018-01-19T04:56:27.950Z,5.67
2018-01-19T04:58:55.509Z,5.07
2018-01-19T05:01:23.069Z,5.37
2018-01-19T05:03:50.531Z,5.87
2018-01-19T05:06:18.187Z,5.30
2018-01-19T05:08:45.745Z,5.60
2018-01-19T05:11:13.203Z,6.67
2018-01-19T05:13:40.696Z,5.60
2018-01-19T05:16:11.908Z,4.80
2018-01-19T05:18:39.465Z,4.93
2018-01-19T05:21:06.959Z,4.83
2018-01-19T05:23:34.482Z,4.97
2018-01-19T05:26:02.181Z,3.90
2018-01-19T05:28:29.702Z,4.27
2018-01-19T05:30:57.262Z,4.30
2018-01-19T05:33:24.773Z,4.93
2018-01-19T05:35:52.279Z,5.10
2018-01-19T05:38:19.838Z,5.23
2018-01-19T05:40:47.336Z,4.30
2018-01-19T05:43:14.957Z,4.67
2018-01-19T05:45:42.384Z,4.60
2018-01-19T05:48:09.785Z,4.20
2018-01-19T05:50:37.215Z,4.90
2018-01-19T05:53:04.616Z,6.30
2018-01-19T05:55:32.082Z,5.10
2018-01-19T05:57:59.745Z,5.00
2018-01-19T06:00:27.413Z,4.17
2018-01-19T06:02:54.923Z,5.63
2018-01-19T06:05:22.423Z,5.63
2018-01-19T06:07:50.170Z,5.00
2018-01-19T06:10:17.701Z,4.80
2018-01-19T06:12:45.260Z,5.70
2018-01-19T06:15:12.819Z,5.53
2018-01-19T06:17:40.288Z,5.50
2018-01-19T06:20:07.722Z,6.00
2018-01-19T06:22:35.294Z,4.93
2018-01-19T06:25:02.797Z,4.90
2018-01-19T06:27:30.244Z,5.57
2018-01-19T06:29:57.768Z,5.13
2018-01-19T06:32:25.271Z,5.57
2018-01-19T06:34:52.783Z,5.77
2018-01-19T06:37:20.276Z,5.07
2018-01-19T06:39:47.800Z,5.53
2018-01-19T06:42:15.365Z,5.70
2018-01-19T06:44:42.923Z,5.70
2018-01-19T06:47:10.479Z,5.60
2018-01-19T06:49:37.976Z,5.03
2018-01-19T06:52:05.394Z,5.33
2018-01-19T06:54:32.893Z,6.03
2018-01-19T06:57:00.512Z,5.70
2018-01-19T06:59:28.015Z,5.30
2018-01-19T07:01:55.463Z,6.20
2018-01-19T07:04:22.985Z,5.40
2018-01-19T07:06:50.544Z,6.03
2018-01-19T07:09:18.206Z,6.13
2018-01-19T07:11:45.601Z,5.93
2018-01-19T07:14:13.119Z,5.60
2018-01-19T07:16:40.623Z,5.33
2018-01-19T07:19:08.172Z,5.60
2018-01-19T07:21:35.594Z,6.33
2018-01-19T07:24:03.154Z,6.90
2018-01-19T07:26:30.712Z,6.30
2018-01-19T07:28:58.309Z,6.47
2018-01-19T07:31:25.780Z,6.87
2018-01-19T07:33:53.292Z,6.73
2018-01-19T07:36:20.846Z,6.73
2018-01-19T07:38:48.340Z,6.80
2018-01-19T07:41:15.865Z,6.80
2018-01-19T07:43:43.423Z,6.33
2018-01-19T07:46:10.881Z,6.13
2018-01-19T07:48:38.421Z,6.30
2018-01-19T07:51:05.932Z,6.07
2018-01-19T07:53:33.459Z,7.50
2018-01-19T07:56:01.160Z,6.17
2018-01-19T07:58:28.677Z,7.27
2018-01-19T08:00:56.237Z,6.70
2018-01-19T08:03:23.643Z,6.70
2018-01-19T08:05:51.056Z,6.93
2018-01-19T08:08:18.551Z,6.83
2018-01-19T08:10:46.066Z,6.80
2018-01-19T08:13:13.624Z,6.53
2018-01-19T08:15:41.184Z,7.33
2018-01-19T08:18:08.744Z,7.43
2018-01-19T08:20:36.211Z,7.60
2018-01-19T08:23:03.762Z,7.23
2018-01-19T08:25:31.169Z,7.13
2018-01-19T08:27:58.777Z,6.63
2018-01-19T08:30:26.270Z,7.07
2018-01-19T08:32:53.673Z,7.60
2018-01-19T08:35:21.103Z,7.30
2018-01-19T08:37:48.707Z,7.50
2018-01-19T08:40:16.184Z,7.03
2018-01-19T08:42:43.728Z,6.93
2018-01-19T08:45:11.285Z,6.90
2018-01-19T08:47:38.775Z,7.10
2018-01-19T08:50:06.405Z,6.93
2018-01-19T08:52:33.963Z,6.33
2018-01-19T08:55:01.522Z,7.37
2018-01-19T08:57:29.081Z,6.77
2018-01-19T08:59:56.641Z,7.00
2018-01-19T09:02:24.198Z,7.40
2018-01-19T09:04:51.760Z,6.80
2018-01-19T09:07:19.252Z,7.37
2018-01-19T09:09:46.719Z,7.20
2018-01-19T09:12:14.285Z,7.10
2018-01-19T09:14:41.680Z,7.47
2018-01-19T09:17:09.199Z,6.63
2018-01-19T09:19:36.648Z,6.67
2018-01-19T09:22:04.097Z,6.73
2018-01-19T09:24:31.621Z,7.20
2018-01-19T09:26:59.034Z,7.70
2018-01-19T09:29:26.635Z,7.00
2018-01-19T09:31:54.194Z,6.90
2018-01-19T09:34:21.755Z,9.33
2018-01-19T09:36:49.363Z,7.13
2018-01-19T09:39:16.976Z,6.93
2018-01-19T09:41:44.535Z,7.90
2018-01-19T09:44:12.043Z,6.43
2018-01-19T09:46:39.552Z,6.63
2018-01-19T09:49:07.049Z,7.10
2018-01-19T09:51:34.569Z,7.20
2018-01-19T09:54:02.127Z,7.23
2018-01-19T09:56:29.687Z,8.30
2018-01-19T09:58:57.247Z,7.70
2018-01-19T10:01:24.742Z,8.60
2018-01-19T10:03:52.207Z,7.53
2018-01-19T10:06:19.725Z,7.77
2018-01-19T10:08:47.281Z,7.70
2018-01-19T10:11:14.840Z,8.20
2018-01-19T10:13:42.400Z,8.83
2018-01-19T10:16:10.061Z,7.90
2018-01-19T10:18:37.621Z,7.97
2018-01-19T10:21:05.202Z,7.40
2018-01-19T10:23:32.737Z,7.37
2018-01-19T10:26:00.300Z,7.60
2018-01-19T10:28:28.219Z,8.40
2018-01-19T10:30:55.829Z,7.70
2018-01-19T10:33:23.388Z,8.07
2018-01-19T10:35:50.951Z,8.20
2018-01-19T10:38:18.514Z,7.03
2018-01-19T10:40:46.064Z,7.93
2018-01-19T10:43:13.556Z,8.43
2018-01-19T10:45:41.080Z,8.63
2018-01-19T10:48:08.644Z,7.83
2018-01-19T10:50:36.204Z,8.30
2018-01-19T10:53:03.864Z,7.43
2018-01-19T10:55:31.365Z,8.80
2018-01-19T10:57:58.816Z,7.30
2018-01-19T11:00:26.255Z,8.93
2018-01-19T11:02:53.798Z,8.70
2018-01-19T11:05:21.281Z,7.53
2018-01-19T11:07:48.719Z,7.87
2018-01-19T11:10:16.215Z,7.60
2018-01-19T11:12:43.777Z,8.00
2018-01-19T11:15:11.320Z,7.70
2018-01-19T11:17:38.945Z,7.70
2018-01-19T11:20:06.472Z,8.43
2018-01-19T11:22:34.063Z,8.77
2018-01-19T11:25:01.623Z,9.10
2018-01-19T11:27:29.132Z,9.67
2018-01-19T11:29:56.740Z,10.10
2018-01-19T11:32:24.143Z,9.47
2018-01-19T11:34:51.697Z,11.47
2018-01-19T11:37:19.152Z,12.20
2018-01-19T11:39:46.776Z,9.40
2018-01-19T11:42:14.333Z,10.87
2018-01-19T11:44:41.740Z,10.50
2018-01-19T11:47:15.084Z,9.50
2018-01-19T11:49:42.488Z,9.70
2018-01-19T11:52:09.999Z,11.67
2018-01-19T11:54:37.503Z,11.00
2018-01-19T11:57:05.015Z,11.70
2018-01-19T11:59:32.575Z,10.73
2018-01-19T12:02:00.138Z,11.90
2018-01-19T12:04:27.628Z,11.67
2018-01-19T12:06:55.084Z,10.90
2018-01-19T12:09:22.709Z,11.63
2018-01-19T12:11:50.120Z,11.30
2018-01-19T12:14:17.560Z,12.43
2018-01-19T12:16:45.188Z,11.53
2018-01-19T12:19:12.742Z,11.77
2018-01-19T12:21:40.301Z,11.00
2018-01-19T12:24:07.862Z,12.13
2018-01-19T12:26:35.422Z,12.03
2018-01-19T12:29:02.979Z,12.30
2018-01-19T12:31:30.394Z,12.80
2018-01-19T12:33:57.896Z,13.35
2018-01-19T12:36:25.453Z,12.05
2018-01-19T12:38:52.944Z,12.33
2018-01-19T12:41:20.406Z,11.97
2018-01-19T12:43:47.957Z,11.67
2018-01-19T12:46:15.433Z,13.53
2018-01-19T12:48:42.980Z,13.00
2018-01-19T12:51:10.435Z,12.90
2018-01-19T12:53:37.883Z,11.50
2018-01-19T12:56:05.416Z,11.87
2018-01-19T12:58:33.041Z,11.80
2018-01-19T13:01:00.638Z,10.80
2018-01-19T13:03:28.200Z,11.60
2018-01-19T13:05:55.698Z,10.70
2018-01-19T13:08:24.136Z,9.53
2018-01-19T13:10:51.694Z,9.43
2018-01-19T13:13:19.188Z,10.60
2018-01-19T13:15:46.644Z,10.40
2018-01-19T13:18:14.167Z,9.60
2018-01-19T13:20:41.727Z,9.60
2018-01-19T13:23:09.286Z,9.70
2018-01-19T13:25:36.845Z,9.93
2018-01-19T13:28:04.406Z,8.53
2018-01-19T13:30:31.965Z,9.27
2018-01-19T13:33:00.041Z,8.30
2018-01-19T13:35:27.596Z,6.57
2018-01-19T13:37:55.156Z,6.83
2018-01-19T13:40:22.560Z,7.37
2018-01-19T13:42:50.072Z,7.60
2018-01-19T13:45:17.563Z,7.20
2018-01-19T13:47:45.086Z,7.53
2018-01-19T13:50:12.606Z,8.83
2018-01-19T13:52:40.204Z,8.80
2018-01-19T13:55:07.765Z,8.20
2018-01-19T13:57:35.221Z,9.37
2018-01-19T14:00:02.781Z,11.10
2018-01-19T14:02:30.341Z,10.77
2018-01-19T14:04:57.832Z,9.40
2018-01-19T14:07:25.356Z,9.73
2018-01-19T14:09:52.859Z,10.17
2018-01-19T14:12:20.323Z,12.47
2018-01-19T14:14:47.931Z,17.97
2018-01-19T14:17:15.491Z,14.33
2018-01-19T14:19:42.984Z,10.93
2018-01-19T14:22:10.509Z,11.73
2018-01-19T14:24:38.003Z,11.57
2018-01-19T14:27:05.524Z,10.73
2018-01-19T14:29:33.024Z,11.87
2018-01-19T14:32:00.541Z,11.70
2018-01-19T14:34:28.100Z,12.67
2018-01-19T14:36:55.661Z,11.90
2018-01-19T14:39:23.219Z,11.60
2018-01-19T14:41:50.778Z,11.07
2018-01-19T14:44:18.216Z,10.47
2018-01-19T14:46:45.742Z,11.20
2018-01-19T14:49:13.172Z,11.97
2018-01-19T14:51:40.695Z,13.83
2018-01-19T14:54:08.202Z,11.77
2018-01-19T14:56:35.660Z,12.00
2018-01-19T14:59:03.182Z,11.33
2018-01-19T15:01:30.699Z,11.43
2018-01-19T15:03:58.201Z,12.30
2018-01-19T15:06:25.758Z,13.00
2018-01-19T15:08:53.326Z,10.83
2018-01-19T15:11:21.441Z,11.20
2018-01-19T15:13:49.051Z,10.20
2018-01-19T15:16:16.508Z,10.70
2018-01-19T15:18:44.067Z,11.73
2018-01-19T15:21:12.139Z,11.67
2018-01-19T15:23:39.699Z,10.70
2018-01-19T15:26:07.258Z,10.30
2018-01-19T15:28:34.817Z,10.13
2018-01-19T15:31:02.378Z,10.00
2018-01-19T15:33:29.834Z,10.17
2018-01-19T15:35:57.393Z,10.73
2018-01-19T15:38:24.838Z,11.50
2018-01-19T15:40:52.256Z,19.90
2018-01-19T15:43:19.764Z,16.27
2018-01-19T15:45:47.324Z,15.17
2018-01-19T15:48:14.883Z,19.23
2018-01-19T15:50:42.442Z,19.70
2018-01-19T15:53:10.104Z,17.40
2018-01-19T15:55:37.663Z,17.97
2018-01-19T15:58:05.121Z,15.00
2018-01-19T16:00:32.577Z,13.10
2018-01-19T16:03:00.142Z,14.70
2018-01-19T16:05:27.696Z,15.27
2018-01-19T16:07:55.193Z,13.70
2018-01-19T16:10:22.713Z,14.37
2018-01-19T16:12:50.274Z,14.50
2018-01-19T16:15:17.687Z,12.50
2018-01-19T16:17:45.186Z,13.37
2018-01-19T16:20:12.749Z,11.97
2018-01-19T16:22:40.305Z,11.43
2018-01-19T16:25:07.864Z,12.47
2018-01-19T16:27:35.355Z,11.37
2018-01-19T16:30:04.110Z,11.30
2018-01-19T16:32:31.977Z,11.87
2018-01-19T16:34:59.642Z,10.83
2018-01-19T16:37:27.301Z,8.40
2018-01-19T16:39:54.859Z,8.73
2018-01-19T16:42:22.521Z,8.67
2018-01-19T16:44:50.080Z,8.30
2018-01-19T16:47:17.641Z,7.87
2018-01-19T16:49:45.302Z,6.27
2018-01-19T16:52:13.813Z,7.10
2018-01-19T16:54:42.264Z,6.40
2018-01-19T16:57:11.185Z,6.80
2018-01-19T16:59:38.747Z,7.97
2018-01-19T17:02:06.274Z,7.80
2018-01-19T17:04:33.835Z,8.30
2018-01-19T17:07:01.324Z,8.90
2018-01-19T17:09:28.853Z,9.27
2018-01-19T17:11:56.410Z,10.90
2018-01-19T17:14:23.970Z,13.07
2018-01-19T17:16:51.501Z,10.40
2018-01-19T17:19:19.087Z,9.50
2018-01-19T17:21:46.646Z,9.40
2018-01-19T17:24:14.104Z,9.53
2018-01-19T17:26:41.664Z,10.97
2018-01-19T17:29:09.224Z,19.27
2018-01-19T17:31:36.781Z,19.80
2018-01-19T17:34:04.476Z,10.03
2018-01-19T17:36:32.003Z,10.63
2018-01-19T17:38:59.563Z,10.20
2018-01-19T17:41:27.123Z,16.57
2018-01-19T17:43:54.682Z,18.67
2018-01-19T17:46:22.241Z,14.30
2018-01-19T17:48:49.800Z,12.77
2018-01-19T17:51:17.260Z,13.13
2018-01-19T17:53:44.823Z,11.03
2018-01-19T17:56:12.278Z,14.63
2018-01-19T17:58:39.837Z,11.00
2018-01-19T18:01:07.317Z,10.80
2018-01-19T18:03:34.851Z,10.03
2018-01-19T18:06:02.439Z,9.40
2018-01-19T18:08:29.916Z,10.67
2018-01-19T18:10:57.479Z,12.10
2018-01-19T18:13:25.088Z,11.53
2018-01-19T18:15:52.601Z,11.00
2018-01-19T18:18:20.106Z,11.20
2018-01-19T18:20:48.384Z,12.67
2018-01-19T18:23:15.943Z,12.47
2018-01-19T18:25:43.447Z,13.87
2018-01-19T18:28:11.133Z,13.17
2018-01-19T18:30:39.132Z,13.33
2018-01-19T18:33:06.793Z,12.33
2018-01-19T18:35:34.352Z,12.80
2018-01-19T18:38:02.013Z,12.63
2018-01-19T18:40:30.289Z,13.37
2018-01-19T18:42:58.053Z,13.10
2018-01-19T18:45:25.612Z,13.40
2018-01-19T18:47:53.172Z,11.23
2018-01-19T18:50:20.738Z,11.30
2018-01-19T18:52:48.290Z,10.23
2018-01-19T18:55:15.749Z,9.17
2018-01-19T18:57:43.454Z,8.43
2018-01-19T19:00:11.175Z,9.60
2018-01-19T19:02:38.678Z,9.10
2018-01-19T19:05:06.232Z,9.60
2018-01-19T19:07:33.750Z,9.20
2018-01-19T19:10:01.361Z,10.40
2018-01-19T19:12:29.196Z,10.20
2018-01-19T19:14:56.963Z,9.93
2018-01-19T19:17:24.426Z,9.93
2018-01-19T19:19:52.061Z,10.03
2018-01-19T19:22:19.526Z,10.50
2018-01-19T19:24:47.075Z,10.57
2018-01-19T19:27:14.635Z,10.57
2018-01-19T19:29:42.140Z,11.27
2018-01-19T19:32:09.550Z,12.47
2018-01-19T19:34:37.048Z,13.47
2018-01-19T19:37:04.504Z,12.43
2018-01-19T19:39:32.084Z,14.80
2018-01-19T19:41:59.780Z,14.03
2018-01-19T19:44:27.347Z,13.60
2018-01-19T19:46:54.852Z,13.33
2018-01-19T19:49:22.572Z,14.03
2018-01-19T19:51:50.561Z,15.50
2018-01-19T19:54:18.331Z,14.50
2018-01-19T19:56:45.962Z,15.93
2018-01-19T19:59:13.524Z,17.20
2018-01-19T20:01:41.084Z,19.30
2018-01-19T20:04:08.743Z,19.10
2018-01-19T20:06:36.309Z,22.70
2018-01-19T20:09:03.805Z,21.30
2018-01-19T20:11:31.439Z,20.80
2018-01-19T20:13:58.981Z,20.73
2018-01-19T20:16:26.643Z,20.40
2018-01-19T20:18:54.212Z,22.00
2018-01-19T20:21:21.836Z,21.80
2018-01-19T20:23:49.370Z,20.67
2018-01-19T20:26:16.882Z,18.80
2018-01-19T20:28:44.388Z,20.10
2018-01-19T20:31:12.001Z,19.93
2018-01-19T20:33:39.511Z,19.80
2018-01-19T20:36:07.019Z,19.00
2018-01-19T20:38:34.507Z,19.83
2018-01-19T20:41:02.034Z,17.73
2018-01-19T20:43:29.540Z,17.10
2018-01-19T20:45:57.048Z,17.27
2018-01-19T20:48:24.685Z,17.90
2018-01-19T20:50:52.372Z,16.97
2018-01-19T20:53:19.886Z,17.60
2018-01-19T20:55:47.490Z,18.40
2018-01-19T20:58:15.256Z,15.90
2018-01-19T21:00:42.917Z,16.50
2018-01-19T21:03:10.680Z,17.03
2018-01-19T21:05:38.239Z,16.60
2018-01-19T21:08:05.798Z,16.77
2018-01-19T21:10:33.359Z,15.73
2018-01-19T21:13:00.919Z,18.17
2018-01-19T21:15:28.412Z,15.67
2018-01-19T21:17:55.869Z,16.27
2018-01-19T21:20:23.596Z,17.17
2018-01-19T21:22:51.156Z,18.07
2018-01-19T21:25:18.938Z,18.53
2018-01-19T21:27:46.479Z,18.47
2018-01-19T21:30:14.039Z,16.60
2018-01-19T21:32:41.544Z,18.30
2018-01-19T21:35:09.158Z,18.37
2018-01-19T21:37:36.628Z,17.20
2018-01-19T21:40:04.175Z,17.27
2018-01-19T21:42:31.733Z,17.57
2018-01-19T21:44:59.228Z,16.30
2018-01-19T21:47:26.750Z,15.73
2018-01-19T21:49:54.310Z,17.77
2018-01-19T21:52:21.871Z,18.23
2018-01-19T21:54:49.401Z,17.43
2018-01-19T21:57:16.988Z,16.73
2018-01-19T21:59:44.548Z,17.60
2018-01-19T22:02:12.110Z,17.10
2018-01-19T22:04:39.769Z,16.80
2018-01-19T22:07:07.340Z,17.77
2018-01-19T22:09:34.859Z,17.10
2018-01-19T22:12:02.395Z,16.10
2018-01-19T22:14:30.007Z,16.37
2018-01-19T22:16:57.501Z,16.60
2018-01-19T22:19:25.023Z,17.33
2018-01-19T22:21:52.518Z,19.60
2018-01-19T22:24:20.039Z,18.33
2018-01-19T22:26:47.599Z,22.27
2018-01-19T22:29:17.140Z,22.80
2018-01-19T22:31:44.663Z,26.40
2018-01-19T22:34:12.222Z,23.63
2018-01-19T22:36:39.724Z,23.30
2018-01-19T22:39:07.172Z,23.03
2018-01-19T22:41:34.696Z,23.50
2018-01-19T22:44:02.256Z,18.60
2018-01-19T22:46:29.814Z,20.30
2018-01-19T22:48:57.228Z,28.20
2018-01-19T22:51:24.831Z,24.03
2018-01-19T22:53:52.287Z,19.60
2018-01-19T22:56:19.952Z,20.93
2018-01-19T22:58:48.195Z,21.23
2018-01-19T23:01:15.796Z,22.40
2018-01-19T23:03:43.345Z,21.20
2018-01-19T23:06:10.904Z,20.90
2018-01-19T23:08:38.463Z,23.30
2018-01-19T23:11:06.024Z,21.90
2018-01-19T23:13:33.593Z,23.87
2018-01-19T23:16:01.078Z,24.00
2018-01-19T23:18:28.541Z,20.80
2018-01-19T23:20:56.158Z,19.20
2018-01-19T23:23:23.679Z,21.03
2018-01-19T23:25:51.088Z,22.70
2018-01-19T23:28:18.632Z,19.17
2018-01-19T23:30:46.133Z,17.47
2018-01-19T23:33:13.648Z,21.00
2018-01-19T23:35:41.208Z,20.40
2018-01-19T23:38:08.767Z,19.93
2018-01-19T23:40:36.326Z,20.00
2018-01-19T23:43:03.826Z,20.77
2018-01-19T23:45:31.277Z,19.87
2018-01-19T23:47:58.802Z,18.27
2018-01-19T23:50:26.360Z,18.03
2018-01-19T23:52:53.919Z,19.10
2018-01-19T23:55:21.480Z,17.53
2018-01-19T23:57:49.049Z,19.97
